Time;durP1;ratioP1;P1;durP2;ratioP2;P2;SDS_P1;SDS_P2;PMS_P1;PMS_P2;Temp;Humidity;BMP_temperature;BMP_pressure;BME280_temperature;BME280_humidity;BME280_pressure;Samples;Min_cycle;Max_cycle;Signal;HPM_P1;HPM_P2
2022/09/10 00:00:08;;;;;;;0.77;0.63;;;;;;;;;;5051751;28;20040;-72
2022/09/10 00:02:38;;;;;;;1.10;1.00;;;;;;;;;;5051129;28;20063;-72
2022/09/10 00:05:08;;;;;;;3.58;1.05;;;;;;;;;;5051267;28;20391;-73
2022/09/10 00:07:39;;;;;;;0.88;0.60;;;;;;;;;;5050300;28;20056;-72
2022/09/10 00:10:10;;;;;;;2.22;0.80;;;;;;;;;;5050509;28;20044;-72
2022/09/10 00:12:41;;;;;;;3.50;1.17;;;;;;;;;;5051862;28;20049;-73
2022/09/10 00:15:11;;;;;;;2.17;0.95;;;;;;;;;;5050632;28;20045;-73
2022/09/10 00:17:41;;;;;;;2.95;1.08;;;;;;;;;;5051393;28;20049;-72
2022/09/10 00:20:11;;;;;;;1.40;0.90;;;;;;;;;;5051524;28;20045;-71
2022/09/10 00:22:42;;;;;;;3.00;1.50;;;;;;;;;;5050042;28;20392;-72
2022/09/10 00:25:12;;;;;;;3.28;1.27;;;;;;;;;;5050715;28;20060;-72
2022/09/10 00:27:41;;;;;;;2.25;1.15;;;;;;;;;;5050763;28;20052;-72
2022/09/10 00:30:12;;;;;;;2.00;1.08;;;;;;;;;;5051213;28;20136;-72
2022/09/10 00:32:42;;;;;;;1.45;0.90;;;;;;;;;;5050999;28;20073;-72
2022/09/10 00:35:12;;;;;;;0.65;0.65;;;;;;;;;;5050793;28;20044;-73
2022/09/10 00:37:42;;;;;;;;;;;;;;;;;;5051352;28;20048;-72
2022/09/10 00:40:13;;;;;;;1.13;0.80;;;;;;;;;;5050507;28;19925;-73
2022/09/10 00:42:43;;;;;;;0.98;0.88;;;;;;;;;;5051296;28;20045;-73
2022/09/10 00:45:17;;;;;;;;;;;;;;;;;;5049766;28;20598;-72
2022/09/10 00:47:51;;;;;;;0.63;0.60;;;;;;;;;;5051043;28;19921;-72
2022/09/10 00:50:28;;;;;;;0.50;0.50;;;;;;;;;;5050161;28;20045;-73
2022/09/10 00:53:03;;;;;;;1.77;0.80;;;;;;;;;;5051046;28;20037;-73
2022/09/10 00:55:36;;;;;;;1.13;0.80;;;;;;;;;;5050401;28;20439;-73
2022/09/10 00:58:10;;;;;;;0.90;0.90;;;;;;;;;;5051170;28;20056;-73
2022/09/10 01:00:41;;;;;;;1.08;0.80;;;;;;;;;;5050375;28;20052;-73
2022/09/10 01:03:14;;;;;;;4.90;0.60;;;;;;;;;;5048828;28;20064;-73
2022/09/10 01:05:46;;;;;;;0.60;0.60;;;;;;;;;;5050820;28;20037;-73
2022/09/10 01:08:18;;;;;;;0.77;0.60;;;;;;;;;;5049489;28;20060;-73
2022/09/10 01:11:13;;;;;;;1.23;0.82;;;;;;;;;;5049283;28;20060;-73
2022/09/10 01:14:06;;;;;;;0.30;0.30;;;;;;;;;;5049147;28;20049;-73
2022/09/10 01:19:08;;;;;;;0.73;0.43;;;;;;;;;;5066935;28;20833;-74
2022/09/10 01:21:50;;;;;;;0.30;0.22;;;;;;;;;;5065697;28;20060;-74
2022/09/10 01:24:53;;;;;;;1.05;0.60;;;;;;;;;;5065978;28;20043;-75
2022/09/10 01:27:54;;;;;;;1.33;0.80;;;;;;;;;;5098544;28;20048;-73
2022/09/10 01:30:33;;;;;;;1.02;0.68;;;;;;;;;;5062281;28;20063;-72
2022/09/10 01:33:29;;;;;;;0.40;0.28;;;;;;;;;;5065289;28;20407;-72
2022/09/10 01:36:05;;;;;;;2.15;0.60;;;;;;;;;;5065641;28;20409;-73
2022/09/10 01:38:38;;;;;;;1.75;0.70;;;;;;;;;;5047833;28;20048;-72
2022/09/10 01:41:09;;;;;;;0.57;0.57;;;;;;;;;;5065176;28;20059;-74
2022/09/10 01:43:42;;;;;;;1.95;0.90;;;;;;;;;;5063555;28;20049;-73
2022/09/10 01:46:40;;;;;;;2.70;0.68;;;;;;;;;;5065308;28;20060;-73
2022/09/10 01:49:38;;;;;;;1.65;0.50;;;;;;;;;;5064850;28;20053;-73
2022/09/10 01:52:27;;;;;;;2.30;0.47;;;;;;;;;;5066361;28;20041;-72
2022/09/10 01:55:13;;;;;;;0.70;0.50;;;;;;;;;;5064906;28;20056;-74
2022/09/10 01:57:54;;;;;;;1.42;0.73;;;;;;;;;;5065226;28;20049;-72
2022/09/10 02:00:34;;;;;;;3.20;0.95;;;;;;;;;;5064946;28;20052;-74
2022/09/10 02:03:17;;;;;;;3.25;1.10;;;;;;;;;;5065316;28;20048;-72
2022/09/10 02:05:52;;;;;;;0.85;0.50;;;;;;;;;;5063787;28;20523;-74
2022/09/10 02:08:36;;;;;;;1.98;0.70;;;;;;;;;;5064059;28;20060;-73
2022/09/10 02:11:13;;;;;;;1.08;0.80;;;;;;;;;;5065918;28;20063;-74
2022/09/10 02:13:48;;;;;;;3.58;1.00;;;;;;;;;;5065782;28;20048;-72
2022/09/10 02:16:42;;;;;;;3.40;1.20;;;;;;;;;;5065459;28;20508;-73
2022/09/10 02:19:13;;;;;;;4.05;0.98;;;;;;;;;;5064417;28;20053;-72
2022/09/10 02:21:43;;;;;;;3.67;1.13;;;;;;;;;;5064233;28;20056;-72
2022/09/10 02:24:13;;;;;;;1.65;0.73;;;;;;;;;;5065211;28;20036;-72
2022/09/10 02:26:44;;;;;;;4.05;0.80;;;;;;;;;;5065788;28;20052;-72
2022/09/10 02:29:16;;;;;;;3.17;0.60;;;;;;;;;;5056990;28;20045;-72
2022/09/10 02:31:46;;;;;;;1.08;0.50;;;;;;;;;;5051741;28;20064;-72
2022/09/10 02:34:17;;;;;;;6.90;0.63;;;;;;;;;;5051237;28;20060;-72
2022/09/10 02:36:48;;;;;;;7.03;0.98;;;;;;;;;;5051656;28;20053;-72
2022/09/10 02:39:19;;;;;;;2.50;1.00;;;;;;;;;;5051761;28;20060;-72
2022/09/10 02:41:51;;;;;;;4.07;0.73;;;;;;;;;;5050592;28;20054;-72
2022/09/10 02:44:23;;;;;;;1.67;0.45;;;;;;;;;;5051445;28;20052;-72
2022/09/10 02:46:54;;;;;;;1.42;0.80;;;;;;;;;;5051529;28;20049;-72
2022/09/10 02:49:25;;;;;;;1.58;0.70;;;;;;;;;;5052062;28;20052;-72
2022/09/10 02:51:55;;;;;;;2.03;0.57;;;;;;;;;;5050520;28;20060;-72
2022/09/10 02:54:25;;;;;;;;;;;;;;;;;;5051908;28;20423;-72
2022/09/10 02:56:55;;;;;;;2.72;0.73;;;;;;;;;;5050369;28;19921;-72
2022/09/10 02:59:25;;;;;;;3.72;0.70;;;;;;;;;;5051386;28;20052;-72
2022/09/10 03:01:55;;;;;;;2.30;0.60;;;;;;;;;;5050840;28;20056;-72
2022/09/10 03:04:25;;;;;;;0.55;0.45;;;;;;;;;;5049832;28;20053;-72
2022/09/10 03:06:54;;;;;;;;;;;;;;;;;;5050465;28;20053;-71
2022/09/10 03:09:27;;;;;;;1.63;0.57;;;;;;;;;;5050075;28;20364;-71
2022/09/10 03:11:58;;;;;;;1.50;0.60;;;;;;;;;;5050209;28;20052;-71
2022/09/10 03:14:29;;;;;;;2.92;0.52;;;;;;;;;;5051023;28;20055;-71
2022/09/10 03:17:01;;;;;;;0.93;0.43;;;;;;;;;;5049303;28;20067;-72
2022/09/10 03:19:32;;;;;;;1.20;0.50;;;;;;;;;;5051198;28;20045;-71
2022/09/10 03:22:01;;;;;;;;;;;;;;;;;;5051754;28;20056;-71
2022/09/10 03:24:33;;;;;;;0.60;0.50;;;;;;;;;;5050135;28;19921;-71
2022/09/10 03:27:06;;;;;;;0.88;0.40;;;;;;;;;;5050556;28;20055;-71
2022/09/10 03:29:36;;;;;;;3.63;0.68;;;;;;;;;;5050538;28;20492;-71
2022/09/10 03:32:06;;;;;;;0.43;0.43;;;;;;;;;;5050413;28;20496;-71
2022/09/10 03:34:39;;;;;;;1.83;0.80;;;;;;;;;;5034037;28;20048;-73
2022/09/10 03:37:09;;;;;;;1.80;0.75;;;;;;;;;;5049067;28;20052;-71
2022/09/10 03:39:39;;;;;;;3.70;0.85;;;;;;;;;;5050575;28;20401;-73
2022/09/10 03:42:09;;;;;;;;;;;;;;;;;;5050413;28;20057;-72
2022/09/10 03:44:40;;;;;;;0.88;0.60;;;;;;;;;;5049736;28;20299;-71
2022/09/10 03:47:10;;;;;;;5.85;0.68;;;;;;;;;;5048395;28;20057;-72
2022/09/10 03:49:41;;;;;;;4.72;0.80;;;;;;;;;;5049652;28;20049;-71
2022/09/10 03:52:13;;;;;;;0.88;0.60;;;;;;;;;;5050254;28;20404;-71
2022/09/10 03:54:44;;;;;;;7.63;0.80;;;;;;;;;;5049718;28;20069;-72
2022/09/10 03:57:15;;;;;;;2.85;0.88;;;;;;;;;;5048890;28;20144;-72
2022/09/10 03:59:45;;;;;;;1.45;0.75;;;;;;;;;;5032792;28;20065;-72
2022/09/10 04:02:15;;;;;;;7.78;1.10;;;;;;;;;;5050455;28;20052;-70
2022/09/10 04:04:46;;;;;;;2.53;0.80;;;;;;;;;;5049290;28;20049;-71
2022/09/10 04:07:16;;;;;;;3.28;1.08;;;;;;;;;;5048349;28;20052;-71
2022/09/10 04:09:46;;;;;;;4.75;0.98;;;;;;;;;;5048284;28;20057;-71
2022/09/10 04:12:17;;;;;;;5.70;1.05;;;;;;;;;;5049416;28;20064;-71
2022/09/10 04:14:48;;;;;;;3.17;0.88;;;;;;;;;;5050339;28;20052;-70
2022/09/10 04:17:18;;;;;;;2.03;0.60;;;;;;;;;;5048759;28;20061;-70
2022/09/10 04:19:48;;;;;;;2.00;0.70;;;;;;;;;;5048813;28;20365;-70
2022/09/10 04:22:19;;;;;;;1.20;0.60;;;;;;;;;;5048098;28;20049;-71
2022/09/10 04:24:50;;;;;;;0.98;0.52;;;;;;;;;;5048459;28;20431;-71
2022/09/10 04:27:21;;;;;;;2.10;0.60;;;;;;;;;;5050425;28;20056;-71
2022/09/10 04:29:52;;;;;;;2.28;0.70;;;;;;;;;;5048392;28;20045;-70
2022/09/10 04:32:22;;;;;;;6.38;0.60;;;;;;;;;;5048636;28;20056;-70
2022/09/10 04:34:53;;;;;;;2.20;0.70;;;;;;;;;;5049399;28;20058;-70
2022/09/10 04:37:25;;;;;;;1.65;0.75;;;;;;;;;;5048794;28;20049;-72
2022/09/10 04:39:56;;;;;;;0.55;0.55;;;;;;;;;;5047597;28;20060;-70
2022/09/10 04:42:27;;;;;;;1.40;0.60;;;;;;;;;;5049858;28;20146;-70
2022/09/10 04:44:58;;;;;;;1.05;0.60;;;;;;;;;;5048543;28;20511;-70
2022/09/10 04:47:28;;;;;;;5.88;0.95;;;;;;;;;;5048353;28;20056;-71
2022/09/10 04:49:58;;;;;;;0.88;0.35;;;;;;;;;;5049896;28;20044;-70
2022/09/10 04:52:28;;;;;;;0.75;0.43;;;;;;;;;;5049376;28;20048;-72
2022/09/10 04:54:58;;;;;;;1.30;0.30;;;;;;;;;;5048006;28;20056;-71
2022/09/10 04:57:28;;;;;;;0.50;0.50;;;;;;;;;;5048525;28;20060;-71
2022/09/10 04:59:58;;;;;;;0.95;0.28;;;;;;;;;;5049207;28;20053;-71
2022/09/10 05:02:28;;;;;;;;;;;;;;;;;;5048389;28;20438;-70
2022/09/10 05:04:58;;;;;;;1.42;0.40;;;;;;;;;;5047911;28;19920;-72
2022/09/10 05:07:29;;;;;;;0.90;0.40;;;;;;;;;;5047808;28;20049;-71
2022/09/10 05:09:58;;;;;;;1.98;0.77;;;;;;;;;;5047621;28;20053;-72
2022/09/10 05:12:30;;;;;;;2.67;0.40;;;;;;;;;;5048258;28;20059;-73
2022/09/10 05:15:02;;;;;;;1.83;0.40;;;;;;;;;;5046988;28;20067;-71
2022/09/10 05:17:32;;;;;;;2.83;0.60;;;;;;;;;;5047782;28;20045;-72
2022/09/10 05:20:04;;;;;;;1.38;0.32;;;;;;;;;;5047766;28;20425;-71
2022/09/10 05:22:41;;;;;;;1.80;0.50;;;;;;;;;;5047861;28;20057;-71
2022/09/10 05:25:11;;;;;;;2.05;0.80;;;;;;;;;;5048799;28;20049;-71
2022/09/10 05:27:42;;;;;;;3.17;0.60;;;;;;;;;;5047355;28;20060;-71
2022/09/10 05:30:18;;;;;;;2.92;0.50;;;;;;;;;;5047511;28;20049;-71
2022/09/10 05:32:52;;;;;;;1.38;0.30;;;;;;;;;;5047874;28;20407;-72
2022/09/10 05:35:22;;;;;;;2.03;0.30;;;;;;;;;;5047778;28;20053;-71
2022/09/10 05:37:55;;;;;;;3.65;0.70;;;;;;;;;;5047354;28;20044;-70
2022/09/10 05:40:27;;;;;;;3.42;0.70;;;;;;;;;;5047327;28;20053;-70
2022/09/10 05:42:59;;;;;;;1.15;0.50;;;;;;;;;;5047615;28;20060;-72
2022/09/10 05:45:29;;;;;;;5.70;0.98;;;;;;;;;;5047839;28;20056;-71
2022/09/10 05:47:59;;;;;;;5.40;0.88;;;;;;;;;;5047112;28;20053;-71
2022/09/10 05:50:29;;;;;;;5.95;0.63;;;;;;;;;;5030787;28;20064;-72
2022/09/10 05:53:00;;;;;;;2.30;0.50;;;;;;;;;;5047819;28;20451;-71
2022/09/10 05:55:32;;;;;;;3.70;0.60;;;;;;;;;;5047734;28;20515;-71
2022/09/10 05:58:01;;;;;;;12.88;1.30;;;;;;;;;;5048947;28;20411;-71
2022/09/10 06:00:35;;;;;;;3.00;0.70;;;;;;;;;;5046620;28;20535;-70
2022/09/10 06:03:06;;;;;;;3.42;0.77;;;;;;;;;;5048412;28;20380;-71
2022/09/10 06:05:51;;;;;;;6.80;1.00;;;;;;;;;;5050574;28;20534;-71
2022/09/10 06:08:25;;;;;;;4.70;0.93;;;;;;;;;;5050846;28;20041;-71
2022/09/10 06:11:04;;;;;;;4.53;0.90;;;;;;;;;;5051422;28;20053;-70
2022/09/10 06:13:41;;;;;;;5.05;0.70;;;;;;;;;;5050956;28;20045;-71
2022/09/10 06:16:12;;;;;;;1.85;0.52;;;;;;;;;;5051355;28;20060;-70
2022/09/10 06:18:44;;;;;;;4.10;1.00;;;;;;;;;;5050201;28;20053;-71
2022/09/10 06:21:19;;;;;;;2.03;0.45;;;;;;;;;;5052035;28;20407;-70
2022/09/10 06:23:56;;;;;;;4.00;0.80;;;;;;;;;;5051904;28;20045;-70
2022/09/10 06:26:31;;;;;;;3.35;0.70;;;;;;;;;;5050380;28;20411;-71
2022/09/10 06:29:06;;;;;;;3.88;0.90;;;;;;;;;;5050707;28;20048;-70
2022/09/10 06:31:38;;;;;;;6.55;0.95;;;;;;;;;;5051256;28;20508;-70
2022/09/10 06:34:08;;;;;;;2.08;0.90;;;;;;;;;;5050005;28;20060;-70
2022/09/10 06:36:38;;;;;;;5.93;0.90;;;;;;;;;;5051477;28;20490;-70
2022/09/10 06:39:08;;;;;;;2.03;0.63;;;;;;;;;;5034693;28;20068;-70
2022/09/10 06:41:49;;;;;;;2.78;0.82;;;;;;;;;;5050108;28;20415;-69
2022/09/10 06:44:52;;;;;;;11.02;1.42;;;;;;;;;;5050453;28;20065;-70
2022/09/10 06:47:36;;;;;;;2.00;0.88;;;;;;;;;;5049865;28;20064;-70
2022/09/10 06:50:29;;;;;;;4.38;0.77;;;;;;;;;;5050520;28;20422;-70
2022/09/10 06:52:59;;;;;;;2.28;0.75;;;;;;;;;;5049697;28;20056;-71
2022/09/10 06:55:29;;;;;;;6.68;0.80;;;;;;;;;;5049824;28;20053;-69
2022/09/10 06:57:59;;;;;;;4.80;0.63;;;;;;;;;;5051722;28;20051;-70
2022/09/10 07:00:31;;;;;;;5.82;0.60;;;;;;;;;;5050392;28;20037;-70
2022/09/10 07:03:01;;;;;;;6.75;1.40;;;;;;;;;;5050269;28;20138;-69
2022/09/10 07:05:34;;;;;;;1.92;0.80;;;;;;;;;;5049160;28;20056;-69
2022/09/10 07:08:04;;;;;;;8.65;0.98;;;;;;;;;;5051361;28;20048;-69
2022/09/10 07:10:36;;;;;;;3.67;1.05;;;;;;;;;;5049747;28;20057;-69
2022/09/10 07:13:07;;;;;;;2.13;0.77;;;;;;;;;;5050437;28;20432;-69
2022/09/10 07:15:45;;;;;;;3.97;0.93;;;;;;;;;;5050167;28;20057;-69
2022/09/10 07:18:17;;;;;;;7.43;2.28;;;;;;;;;;5049025;28;20053;-69
2022/09/10 07:20:47;;;;;;;9.48;1.23;;;;;;;;;;5051109;28;20049;-69
2022/09/10 07:23:19;;;;;;;6.00;1.10;;;;;;;;;;5049546;28;20053;-69
2022/09/10 07:25:51;;;;;;;4.40;1.00;;;;;;;;;;5049624;28;20419;-69
2022/09/10 07:28:42;;;;;;;5.13;1.20;;;;;;;;;;5049674;28;20052;-68
2022/09/10 07:31:28;;;;;;;4.45;1.20;;;;;;;;;;5049899;28;20064;-73
2022/09/10 07:34:02;;;;;;;6.65;1.10;;;;;;;;;;5049542;28;20080;-69
2022/09/10 07:36:32;;;;;;;3.22;1.40;;;;;;;;;;5050969;28;20040;-68
2022/09/10 07:39:03;;;;;;;7.53;1.25;;;;;;;;;;5049208;28;20060;-70
2022/09/10 07:41:36;;;;;;;5.20;0.90;;;;;;;;;;5049943;28;20049;-70
2022/09/10 07:44:08;;;;;;;4.05;1.30;;;;;;;;;;5049511;28;20496;-68
2022/09/10 07:46:42;;;;;;;5.43;1.30;;;;;;;;;;5050009;28;20041;-70
2022/09/10 07:49:15;;;;;;;3.90;1.08;;;;;;;;;;5048745;28;20053;-70
2022/09/10 07:51:48;;;;;;;4.88;1.33;;;;;;;;;;5049344;28;20077;-70
2022/09/10 07:54:18;;;;;;;8.27;1.48;;;;;;;;;;5049732;28;20064;-68
2022/09/10 07:56:53;;;;;;;2.20;0.77;;;;;;;;;;5049490;28;20048;-69
2022/09/10 07:59:23;;;;;;;4.72;1.10;;;;;;;;;;5048816;28;20052;-70
2022/09/10 08:02:01;;;;;;;5.20;0.98;;;;;;;;;;5048909;28;20049;-70
2022/09/10 08:04:36;;;;;;;3.70;0.98;;;;;;;;;;5049045;28;20056;-70
2022/09/10 08:07:10;;;;;;;2.95;1.65;;;;;;;;;;5048773;28;20048;-68
2022/09/10 08:09:42;;;;;;;4.43;1.23;;;;;;;;;;5048847;28;20431;-69
2022/09/10 08:12:16;;;;;;;3.78;0.90;;;;;;;;;;5049138;28;20045;-68
2022/09/10 08:14:49;;;;;;;8.63;1.30;;;;;;;;;;5050392;28;20045;-68
2022/09/10 08:17:20;;;;;;;2.08;0.82;;;;;;;;;;5050285;28;20056;-68
2022/09/10 08:19:51;;;;;;;5.47;1.08;;;;;;;;;;5048629;28;20048;-70
2022/09/10 08:22:21;;;;;;;12.63;1.65;;;;;;;;;;5049001;28;20057;-70
2022/09/10 08:24:54;;;;;;;4.20;1.10;;;;;;;;;;5048478;28;20056;-68
2022/09/10 08:27:31;;;;;;;4.03;1.10;;;;;;;;;;5048657;28;20057;-68
2022/09/10 08:30:03;;;;;;;7.93;1.52;;;;;;;;;;5048118;28;20500;-70
2022/09/10 08:32:34;;;;;;;4.43;1.13;;;;;;;;;;5048655;28;20053;-69
2022/09/10 08:35:06;;;;;;;3.33;1.17;;;;;;;;;;5048662;28;20072;-70
2022/09/10 08:37:36;;;;;;;2.25;1.50;;;;;;;;;;5047896;28;20403;-69
2022/09/10 08:40:10;;;;;;;4.95;1.70;;;;;;;;;;5047914;28;20063;-69
2022/09/10 08:42:48;;;;;;;8.23;1.98;;;;;;;;;;5048801;28;20051;-70
2022/09/10 08:45:24;;;;;;;3.22;1.48;;;;;;;;;;5047786;28;20049;-69
2022/09/10 08:48:12;;;;;;;5.90;1.33;;;;;;;;;;5048124;28;20057;-69
2022/09/10 08:50:55;;;;;;;3.28;1.10;;;;;;;;;;5048226;28;20056;-69
2022/09/10 08:53:43;;;;;;;5.88;1.40;;;;;;;;;;5049805;28;20057;-70
2022/09/10 08:56:17;;;;;;;4.43;1.45;;;;;;;;;;5047428;28;20053;-69
2022/09/10 08:59:24;;;;;;;2.70;0.93;;;;;;;;;;5047813;28;20056;-71
2022/09/10 09:02:11;;;;;;;6.25;1.90;;;;;;;;;;5049512;28;20198;-69
2022/09/10 09:05:14;;;;;;;4.38;1.35;;;;;;;;;;5048246;28;20053;-69
2022/09/10 09:07:47;;;;;;;3.95;1.10;;;;;;;;;;5047837;28;20041;-68
2022/09/10 09:10:25;;;;;;;3.22;1.13;;;;;;;;;;5049822;28;20045;-69
2022/09/10 09:13:08;;;;;;;4.75;0.93;;;;;;;;;;5047344;28;20510;-69
2022/09/10 09:15:48;;;;;;;3.50;0.70;;;;;;;;;;5048192;28;20049;-71
2022/09/10 09:18:49;;;;;;;7.00;1.15;;;;;;;;;;5048032;28;20057;-70
2022/09/10 09:21:47;;;;;;;3.60;0.85;;;;;;;;;;5047835;28;20061;-70
2022/09/10 09:24:27;;;;;;;1.23;0.60;;;;;;;;;;5047832;28;20053;-70
2022/09/10 09:27:08;;;;;;;1.85;0.80;;;;;;;;;;5047953;28;20049;-68
2022/09/10 09:29:49;;;;;;;3.13;0.90;;;;;;;;;;5047433;28;20052;-69
2022/09/10 09:32:21;;;;;;;6.53;1.30;;;;;;;;;;5048116;28;20053;-70
2022/09/10 09:35:04;;;;;;;2.35;0.90;;;;;;;;;;5048064;28;20057;-70
2022/09/10 09:37:36;;;;;;;7.88;1.70;;;;;;;;;;5047296;28;20057;-70
2022/09/10 09:40:15;;;;;;;4.97;0.80;;;;;;;;;;5050238;28;20417;-71
2022/09/10 09:42:46;;;;;;;2.70;0.95;;;;;;;;;;5052814;28;20060;-68
2022/09/10 09:45:48;;;;;;;3.47;0.85;;;;;;;;;;5051111;28;20056;-68
2022/09/10 09:48:21;;;;;;;5.20;1.02;;;;;;;;;;5051319;28;20511;-70
2022/09/10 09:50:59;;;;;;;2.10;0.90;;;;;;;;;;5050918;28;20053;-69
2022/09/10 09:53:30;;;;;;;3.58;1.00;;;;;;;;;;5053190;28;20041;-70
2022/09/10 09:56:02;;;;;;;7.45;1.23;;;;;;;;;;5052884;28;20052;-70
2022/09/10 09:58:35;;;;;;;3.17;0.80;;;;;;;;;;5052420;28;20519;-70
2022/09/10 10:01:05;;;;;;;7.68;1.48;;;;;;;;;;5051623;28;20518;-71
2022/09/10 10:03:53;;;;;;;7.38;1.10;;;;;;;;;;5052894;28;20141;-73
2022/09/10 10:06:26;;;;;;;5.93;1.17;;;;;;;;;;5052870;28;20041;-69
2022/09/10 10:09:18;;;;;;;3.83;1.13;;;;;;;;;;5052025;28;20064;-70
2022/09/10 10:11:58;;;;;;;5.13;1.17;;;;;;;;;;5052114;28;20443;-70
2022/09/10 10:14:31;;;;;;;3.92;0.93;;;;;;;;;;5052180;28;20044;-73
2022/09/10 10:17:02;;;;;;;8.27;1.08;;;;;;;;;;5052186;28;20488;-69
2022/09/10 10:19:39;;;;;;;5.28;0.95;;;;;;;;;;5050160;28;20059;-69
2022/09/10 10:22:16;;;;;;;3.10;0.55;;;;;;;;;;5052804;28;20075;-71
2022/09/10 10:24:47;;;;;;;;;;;;;;;;;;5051752;28;20061;-71
2022/09/10 10:27:23;;;;;;;7.13;1.23;;;;;;;;;;5052548;28;19924;-72
2022/09/10 10:29:55;;;;;;;;;;;;;;;;;;5052443;28;20411;-70
2022/09/10 10:32:45;;;;;;;3.15;1.17;;;;;;;;;;5052136;28;19927;-69
2022/09/10 10:35:56;;;;;;;3.35;1.05;;;;;;;;;;5051965;28;20048;-72
2022/09/10 10:38:39;;;;;;;5.65;1.63;;;;;;;;;;5040141;28;20515;-69
2022/09/10 10:41:37;;;;;;;2.50;0.70;;;;;;;;;;5051563;28;20057;-69
2022/09/10 10:44:35;;;;;;;7.22;1.58;;;;;;;;;;5051040;28;20045;-70
2022/09/10 10:47:18;;;;;;;5.45;1.05;;;;;;;;;;5051019;28;20068;-69
2022/09/10 10:49:57;;;;;;;2.40;0.70;;;;;;;;;;5050561;28;20045;-69
2022/09/10 10:52:43;;;;;;;7.90;1.52;;;;;;;;;;5050168;28;20049;-70
2022/09/10 10:55:47;;;;;;;4.68;0.80;;;;;;;;;;5052067;28;20049;-74
2022/09/10 10:59:09;;;;;;;2.92;1.10;;;;;;;;;;5052495;28;20112;-70
2022/09/10 11:02:20;;;;;;;5.15;1.35;;;;;;;;;;5050828;28;20083;-70
2022/09/10 11:04:53;;;;;;;5.95;0.95;;;;;;;;;;5051879;28;20412;-73
2022/09/10 11:07:38;;;;;;;5.03;1.00;;;;;;;;;;5052577;28;20044;-70
2022/09/10 11:10:27;;;;;;;4.55;0.90;;;;;;;;;;5051023;28;20041;-70
2022/09/10 11:13:26;;;;;;;4.40;0.73;;;;;;;;;;5050517;28;20052;-72
2022/09/10 11:16:08;;;;;;;4.20;0.80;;;;;;;;;;5051763;28;20389;-71
2022/09/10 11:18:43;;;;;;;2.28;0.80;;;;;;;;;;5051493;28;20508;-71
2022/09/10 11:21:31;;;;;;;2.17;0.60;;;;;;;;;;5051717;28;20075;-70
2022/09/10 11:24:33;;;;;;;3.13;1.00;;;;;;;;;;5051003;28;20500;-71
2022/09/10 11:27:13;;;;;;;4.93;0.93;;;;;;;;;;5050836;28;20049;-72
2022/09/10 11:29:51;;;;;;;4.72;1.10;;;;;;;;;;5051317;28;20516;-73
2022/09/10 11:32:41;;;;;;;8.70;1.10;;;;;;;;;;5050999;28;20056;-70
2022/09/10 11:35:26;;;;;;;4.20;1.10;;;;;;;;;;5051217;28;20049;-71
2022/09/10 11:38:01;;;;;;;2.30;0.65;;;;;;;;;;5051109;28;20040;-72
2022/09/10 11:40:46;;;;;;;3.95;0.70;;;;;;;;;;5051148;28;20037;-71
2022/09/10 11:43:36;;;;;;;1.77;0.65;;;;;;;;;;5049717;28;20068;-70
2022/09/10 11:46:14;;;;;;;3.75;0.77;;;;;;;;;;5051114;28;20056;-73
2022/09/10 11:49:15;;;;;;;5.72;3.65;;;;;;;;;;5050656;28;20049;-72
2022/09/10 11:51:46;;;;;;;2.72;0.77;;;;;;;;;;5050785;28;20044;-70
2022/09/10 11:54:25;;;;;;;2.72;0.60;;;;;;;;;;5050837;28;20412;-72
2022/09/10 11:57:20;;;;;;;3.47;1.00;;;;;;;;;;5051090;28;20048;-72
2022/09/10 12:00:19;;;;;;;3.75;0.50;;;;;;;;;;5050461;28;20056;-72
2022/09/10 12:03:03;;;;;;;5.03;0.82;;;;;;;;;;5049377;28;20056;-72
2022/09/10 12:05:54;;;;;;;3.58;1.02;;;;;;;;;;5049147;28;20045;-72
2022/09/10 12:08:51;;;;;;;0.90;0.65;;;;;;;;;;5050684;28;20041;-70
2022/09/10 12:11:38;;;;;;;4.13;0.73;;;;;;;;;;5050375;28;20496;-72
2022/09/10 12:14:15;;;;;;;4.50;1.00;;;;;;;;;;5050818;28;20056;-71
2022/09/10 12:16:45;;;;;;;6.40;1.20;;;;;;;;;;5049316;28;20504;-71
2022/09/10 12:19:45;;;;;;;4.35;0.65;;;;;;;;;;5050272;28;20056;-71
2022/09/10 12:22:35;;;;;;;4.47;0.82;;;;;;;;;;5050126;28;20057;-72
2022/09/10 12:25:23;;;;;;;1.98;0.32;;;;;;;;;;5049082;28;20063;-73
2022/09/10 12:28:00;;;;;;;3.58;0.68;;;;;;;;;;5049816;28;20060;-74
2022/09/10 12:30:32;;;;;;;3.67;1.10;;;;;;;;;;5049859;28;20538;-72
2022/09/10 12:33:44;;;;;;;2.28;0.60;;;;;;;;;;5050450;28;20045;-72
2022/09/10 12:36:34;;;;;;;1.65;0.60;;;;;;;;;;5020694;28;20053;-70
2022/09/10 12:39:25;;;;;;;4.15;0.57;;;;;;;;;;5048673;28;20500;-71
2022/09/10 12:41:58;;;;;;;2.30;0.68;;;;;;;;;;5049889;28;20049;-73
2022/09/10 12:44:34;;;;;;;1.40;0.70;;;;;;;;;;5050143;28;20049;-71
2022/09/10 12:47:26;;;;;;;3.47;0.65;;;;;;;;;;5049598;28;20053;-72
2022/09/10 12:49:58;;;;;;;1.15;0.52;;;;;;;;;;5049648;28;20040;-72
2022/09/10 12:52:40;;;;;;;2.42;0.82;;;;;;;;;;5047768;28;20093;-72
2022/09/10 12:55:20;;;;;;;1.00;0.60;;;;;;;;;;5049757;28;20045;-74
2022/09/10 12:58:16;;;;;;;3.80;0.60;;;;;;;;;;5049886;28;20756;-72
2022/09/10 13:00:56;;;;;;;2.85;0.80;;;;;;;;;;5047659;28;20060;-72
2022/09/10 13:03:28;;;;;;;3.88;0.50;;;;;;;;;;5048640;28;20044;-72
2022/09/10 13:06:04;;;;;;;0.60;0.47;;;;;;;;;;5048777;28;20045;-71
2022/09/10 13:08:40;;;;;;;;;;;;;;;;;;5048883;28;20045;-72
2022/09/10 13:11:31;;;;;;;2.33;0.90;;;;;;;;;;5049331;28;19932;-72
2022/09/10 13:14:04;;;;;;;1.88;0.50;;;;;;;;;;5048612;28;20503;-72
2022/09/10 13:16:35;;;;;;;0.40;0.40;;;;;;;;;;5048352;28;20056;-73
2022/09/10 13:19:18;;;;;;;2.90;0.75;;;;;;;;;;5048655;28;20531;-72
2022/09/10 13:21:50;;;;;;;0.70;0.40;;;;;;;;;;5048494;28;20443;-73
2022/09/10 13:24:35;;;;;;;1.02;0.32;;;;;;;;;;5048354;28;20037;-74
2022/09/10 13:27:40;;;;;;;1.17;0.50;;;;;;;;;;5048568;28;20523;-71
2022/09/10 13:30:10;;;;;;;3.40;0.60;;;;;;;;;;5047217;28;20403;-76
2022/09/10 13:33:00;;;;;;;0.30;0.20;;;;;;;;;;5048551;28;20484;-73
2022/09/10 13:35:48;;;;;;;1.00;0.40;;;;;;;;;;5048134;28;20041;-71
2022/09/10 13:39:13;;;;;;;1.90;0.43;;;;;;;;;;5048198;28;20056;-75
2022/09/10 13:42:27;;;;;;;3.75;2.17;;;;;;;;;;5046409;28;20045;-73
2022/09/10 13:45:48;;;;;;;3.90;0.60;;;;;;;;;;4988484;28;20122;-72
2022/09/10 13:48:21;;;;;;;0.73;0.35;;;;;;;;;;4969012;28;20426;-72
2022/09/10 13:51:09;;;;;;;1.60;0.60;;;;;;;;;;5047005;28;20408;-72
2022/09/10 13:53:43;;;;;;;4.50;0.98;;;;;;;;;;5051622;28;20036;-73
2022/09/10 13:56:24;;;;;;;2.83;0.60;;;;;;;;;;5049444;28;20052;-76
2022/09/10 13:59:00;;;;;;;1.08;0.50;;;;;;;;;;5048789;28;20037;-72
2022/09/10 14:01:49;;;;;;;2.50;0.50;;;;;;;;;;5048997;28;20515;-73
2022/09/10 14:04:25;;;;;;;0.90;0.40;;;;;;;;;;5048550;28;20071;-72
2022/09/10 14:07:14;;;;;;;1.70;0.70;;;;;;;;;;5048866;28;20399;-74
2022/09/10 14:09:51;;;;;;;1.33;0.50;;;;;;;;;;5048581;28;20057;-76
2022/09/10 14:12:25;;;;;;;1.00;0.60;;;;;;;;;;5034259;28;20049;-72
2022/09/10 14:15:02;;;;;;;1.92;0.75;;;;;;;;;;5026915;28;20055;-72
2022/09/10 14:17:46;;;;;;;0.50;0.30;;;;;;;;;;5030284;28;20061;-73
2022/09/10 14:20:29;;;;;;;0.30;0.30;;;;;;;;;;5026945;28;20057;-71
2022/09/10 14:23:12;;;;;;;1.67;0.43;;;;;;;;;;5028496;28;20049;-69
2022/09/10 14:25:45;;;;;;;2.28;0.50;;;;;;;;;;5030404;28;20050;-71
2022/09/10 14:28:15;;;;;;;1.63;0.70;;;;;;;;;;5032140;28;20049;-71
2022/09/10 14:30:47;;;;;;;1.42;0.40;;;;;;;;;;5032640;28;20057;-72
2022/09/10 14:33:27;;;;;;;0.68;0.47;;;;;;;;;;5015258;28;20054;-71
2022/09/10 14:36:12;;;;;;;1.88;0.52;;;;;;;;;;5031502;28;20037;-72
2022/09/10 14:38:44;;;;;;;1.30;0.50;;;;;;;;;;5032135;28;20049;-72
2022/09/10 14:41:20;;;;;;;1.40;0.60;;;;;;;;;;5033946;28;20499;-71
2022/09/10 14:44:23;;;;;;;0.30;0.30;;;;;;;;;;5030388;28;20060;-71
2022/09/10 14:46:57;;;;;;;0.75;0.40;;;;;;;;;;5034104;28;20045;-74
2022/09/10 14:49:32;;;;;;;1.33;0.43;;;;;;;;;;5031859;28;20060;-72
2022/09/10 14:52:04;;;;;;;0.88;0.50;;;;;;;;;;5033216;28;20041;-72
2022/09/10 14:54:35;;;;;;;1.67;0.40;;;;;;;;;;5030450;28;20045;-72
2022/09/10 14:57:12;;;;;;;1.20;0.50;;;;;;;;;;5032062;28;20042;-71
2022/09/10 14:59:45;;;;;;;0.63;0.40;;;;;;;;;;5029443;28;20429;-73
2022/09/10 15:02:26;;;;;;;0.45;0.35;;;;;;;;;;5028471;28;20045;-74
2022/09/10 15:04:59;;;;;;;0.40;0.32;;;;;;;;;;5031145;28;20053;-73
2022/09/10 15:07:30;;;;;;;1.63;0.40;;;;;;;;;;5031277;28;20054;-73
2022/09/10 15:10:00;;;;;;;1.17;0.52;;;;;;;;;;5028993;28;20045;-70
2022/09/10 15:12:31;;;;;;;1.83;0.70;;;;;;;;;;5029866;28;20053;-72
2022/09/10 15:15:02;;;;;;;3.10;0.80;;;;;;;;;;5031076;28;20136;-71
2022/09/10 15:17:34;;;;;;;0.75;0.50;;;;;;;;;;5029472;28;20453;-71
2022/09/10 15:20:26;;;;;;;2.05;0.35;;;;;;;;;;5030285;28;20389;-74
2022/09/10 15:23:05;;;;;;;3.13;0.70;;;;;;;;;;5031100;28;20045;-72
2022/09/10 15:25:49;;;;;;;0.98;0.50;;;;;;;;;;5029073;28;20057;-74
2022/09/10 15:28:20;;;;;;;1.17;0.30;;;;;;;;;;5031499;28;20550;-72
2022/09/10 15:30:51;;;;;;;0.45;0.30;;;;;;;;;;5029840;28;20084;-71
2022/09/10 15:33:21;;;;;;;2.33;0.40;;;;;;;;;;5034374;28;20053;-71
2022/09/10 15:35:53;;;;;;;1.23;0.30;;;;;;;;;;5036526;28;20420;-71
2022/09/10 15:38:35;;;;;;;0.93;0.50;;;;;;;;;;5048195;28;20483;-71
2022/09/10 15:41:15;;;;;;;3.35;0.60;;;;;;;;;;5073360;28;20051;-76
2022/09/10 15:43:55;;;;;;;0.40;0.25;;;;;;;;;;5069946;28;20056;-71
2022/09/10 15:46:27;;;;;;;0.63;0.40;;;;;;;;;;5068108;28;20069;-72
2022/09/10 15:48:58;;;;;;;0.90;0.38;;;;;;;;;;5069700;28;20049;-72